sensor_id;sensor_type;location;lat;lon;timestamp;P1;durP1;ratioP1;P2;durP2;ratioP2
6217;SDS011;3142;48.206;11.550;2024-01-30T00:01:00;14.37;;;9.53;;
6217;SDS011;3142;48.206;11.550;2024-01-30T00:03:28;16.40;;;10.73;;
6217;SDS011;3142;48.206;11.550;2024-01-30T00:05:55;15.30;;;10.40;;
6217;SDS011;3142;48.206;11.550;2024-01-30T00:08:22;18.47;;;10.67;;
6217;SDS011;3142;48.206;11.550;2024-01-30T00:10:48;14.53;;;10.33;;
6217;SDS011;3142;48.206;11.550;2024-01-30T00:13:15;18.50;;;10.73;;
6217;SDS011;3142;48.206;11.550;2024-01-30T00:15:43;19.83;;;10.43;;
6217;SDS011;3142;48.206;11.550;2024-01-30T00:18:10;16.20;;;10.00;;
6217;SDS011;3142;48.206;11.550;2024-01-30T00:20:37;16.03;;;9.93;;
6217;SDS011;3142;48.206;11.550;2024-01-30T00:23:04;15.63;;;9.87;;
6217;SDS011;3142;48.206;11.550;2024-01-30T00:25:30;18.90;;;10.10;;
6217;SDS011;3142;48.206;11.550;2024-01-30T00:27:58;16.43;;;11.00;;
6217;SDS011;3142;48.206;11.550;2024-01-30T00:30:24;17.80;;;9.43;;
6217;SDS011;3142;48.206;11.550;2024-01-30T00:32:51;16.37;;;10.07;;
6217;SDS011;3142;48.206;11.550;2024-01-30T00:35:17;15.47;;;9.47;;
6217;SDS011;3142;48.206;11.550;2024-01-30T00:37:45;17.30;;;9.70;;
6217;SDS011;3142;48.206;11.550;2024-01-30T00:40:12;17.13;;;9.80;;
6217;SDS011;3142;48.206;11.550;2024-01-30T00:42:40;15.80;;;9.30;;
6217;SDS011;3142;48.206;11.550;2024-01-30T00:45:11;14.80;;;9.33;;
6217;SDS011;3142;48.206;11.550;2024-01-30T00:47:38;17.63;;;8.93;;
6217;SDS011;3142;48.206;11.550;2024-01-30T00:50:05;17.60;;;9.27;;
6217;SDS011;3142;48.206;11.550;2024-01-30T00:52:32;15.83;;;10.13;;
6217;SDS011;3142;48.206;11.550;2024-01-30T00:55:00;18.57;;;9.50;;
6217;SDS011;3142;48.206;11.550;2024-01-30T00:57:26;15.50;;;9.00;;
6217;SDS011;3142;48.206;11.550;2024-01-30T00:59:53;17.60;;;9.77;;
6217;SDS011;3142;48.206;11.550;2024-01-30T01:02:19;15.40;;;10.53;;
6217;SDS011;3142;48.206;11.550;2024-01-30T01:04:46;14.90;;;10.23;;
6217;SDS011;3142;48.206;11.550;2024-01-30T01:07:12;27.90;;;9.37;;
6217;SDS011;3142;48.206;11.550;2024-01-30T01:09:39;12.83;;;8.73;;
6217;SDS011;3142;48.206;11.550;2024-01-30T01:12:07;11.97;;;8.77;;
6217;SDS011;3142;48.206;11.550;2024-01-30T01:14:33;13.17;;;7.67;;
6217;SDS011;3142;48.206;11.550;2024-01-30T01:17:01;13.87;;;8.67;;
6217;SDS011;3142;48.206;11.550;2024-01-30T01:19:28;11.87;;;8.40;;
6217;SDS011;3142;48.206;11.550;2024-01-30T01:21:54;19.10;;;11.43;;
6217;SDS011;3142;48.206;11.550;2024-01-30T01:24:20;17.53;;;8.87;;
6217;SDS011;3142;48.206;11.550;2024-01-30T01:26:47;13.10;;;9.07;;
6217;SDS011;3142;48.206;11.550;2024-01-30T01:29:15;13.67;;;8.70;;
6217;SDS011;3142;48.206;11.550;2024-01-30T01:31:41;13.33;;;8.90;;
6217;SDS011;3142;48.206;11.550;2024-01-30T01:34:08;14.17;;;8.00;;
6217;SDS011;3142;48.206;11.550;2024-01-30T01:36:35;16.40;;;9.93;;
6217;SDS011;3142;48.206;11.550;2024-01-30T01:39:01;18.97;;;10.17;;
6217;SDS011;3142;48.206;11.550;2024-01-30T01:41:29;17.77;;;11.03;;
6217;SDS011;3142;48.206;11.550;2024-01-30T01:43:56;15.17;;;9.93;;
6217;SDS011;3142;48.206;11.550;2024-01-30T01:46:24;15.77;;;10.63;;
6217;SDS011;3142;48.206;11.550;2024-01-30T01:48:52;17.73;;;10.30;;
6217;SDS011;3142;48.206;11.550;2024-01-30T01:51:20;19.53;;;11.43;;
6217;SDS011;3142;48.206;11.550;2024-01-30T01:53:47;15.20;;;9.80;;
6217;SDS011;3142;48.206;11.550;2024-01-30T01:56:14;15.80;;;8.83;;
6217;SDS011;3142;48.206;11.550;2024-01-30T01:58:41;10.37;;;7.23;;
6217;SDS011;3142;48.206;11.550;2024-01-30T02:01:07;9.53;;;6.50;;
6217;SDS011;3142;48.206;11.550;2024-01-30T02:03:35;10.23;;;6.00;;
6217;SDS011;3142;48.206;11.550;2024-01-30T02:06:02;10.03;;;6.70;;
6217;SDS011;3142;48.206;11.550;2024-01-30T02:08:29;10.07;;;6.70;;
6217;SDS011;3142;48.206;11.550;2024-01-30T02:10:56;10.20;;;7.60;;
6217;SDS011;3142;48.206;11.550;2024-01-30T02:13:23;11.80;;;7.93;;
6217;SDS011;3142;48.206;11.550;2024-01-30T02:15:49;13.03;;;8.03;;
6217;SDS011;3142;48.206;11.550;2024-01-30T02:18:16;16.20;;;9.77;;
6217;SDS011;3142;48.206;11.550;2024-01-30T02:20:44;13.70;;;8.40;;
6217;SDS011;3142;48.206;11.550;2024-01-30T02:23:12;12.10;;;8.47;;
6217;SDS011;3142;48.206;11.550;2024-01-30T02:25:41;15.97;;;8.90;;
6217;SDS011;3142;48.206;11.550;2024-01-30T02:28:10;14.30;;;8.93;;
6217;SDS011;3142;48.206;11.550;2024-01-30T02:30:37;16.30;;;8.97;;
6217;SDS011;3142;48.206;11.550;2024-01-30T02:33:03;17.57;;;9.47;;
6217;SDS011;3142;48.206;11.550;2024-01-30T02:35:30;67.47;;;40.00;;
6217;SDS011;3142;48.206;11.550;2024-01-30T02:37:57;145.37;;;74.13;;
6217;SDS011;3142;48.206;11.550;2024-01-30T02:40:24;133.40;;;68.40;;
6217;SDS011;3142;48.206;11.550;2024-01-30T02:42:51;31.97;;;17.33;;
6217;SDS011;3142;48.206;11.550;2024-01-30T02:45:18;13.97;;;9.47;;
6217;SDS011;3142;48.206;11.550;2024-01-30T02:47:45;11.47;;;7.50;;
6217;SDS011;3142;48.206;11.550;2024-01-30T02:50:12;11.70;;;6.40;;
6217;SDS011;3142;48.206;11.550;2024-01-30T02:52:40;10.10;;;6.33;;
6217;SDS011;3142;48.206;11.550;2024-01-30T02:55:08;11.47;;;7.30;;
6217;SDS011;3142;48.206;11.550;2024-01-30T02:57:36;7.60;;;5.07;;
6217;SDS011;3142;48.206;11.550;2024-01-30T03:00:03;7.20;;;4.63;;
6217;SDS011;3142;48.206;11.550;2024-01-30T03:02:31;6.87;;;4.90;;
6217;SDS011;3142;48.206;11.550;2024-01-30T03:04:57;8.00;;;5.63;;
6217;SDS011;3142;48.206;11.550;2024-01-30T03:07:24;7.83;;;5.37;;
6217;SDS011;3142;48.206;11.550;2024-01-30T03:09:50;19.83;;;11.67;;
6217;SDS011;3142;48.206;11.550;2024-01-30T03:12:17;22.83;;;14.33;;
6217;SDS011;3142;48.206;11.550;2024-01-30T03:14:45;26.50;;;14.50;;
6217;SDS011;3142;48.206;11.550;2024-01-30T03:17:12;12.37;;;7.37;;
6217;SDS011;3142;48.206;11.550;2024-01-30T03:19:38;78.67;;;38.50;;
6217;SDS011;3142;48.206;11.550;2024-01-30T03:22:05;55.27;;;27.40;;
6217;SDS011;3142;48.206;11.550;2024-01-30T03:24:32;12.20;;;7.23;;
6217;SDS011;3142;48.206;11.550;2024-01-30T03:26:58;7.90;;;5.60;;
6217;SDS011;3142;48.206;11.550;2024-01-30T03:29:25;6.60;;;5.40;;
6217;SDS011;3142;48.206;11.550;2024-01-30T03:31:52;9.10;;;6.00;;
6217;SDS011;3142;48.206;11.550;2024-01-30T03:34:18;9.10;;;6.73;;
6217;SDS011;3142;48.206;11.550;2024-01-30T03:36:44;63.63;;;38.03;;
6217;SDS011;3142;48.206;11.550;2024-01-30T03:39:11;41.80;;;24.93;;
6217;SDS011;3142;48.206;11.550;2024-01-30T03:41:37;96.37;;;42.67;;
6217;SDS011;3142;48.206;11.550;2024-01-30T03:44:04;24.27;;;11.53;;
6217;SDS011;3142;48.206;11.550;2024-01-30T03:46:30;12.50;;;7.17;;
6217;SDS011;3142;48.206;11.550;2024-01-30T03:48:58;12.27;;;7.50;;
6217;SDS011;3142;48.206;11.550;2024-01-30T03:51:24;11.30;;;6.97;;
6217;SDS011;3142;48.206;11.550;2024-01-30T03:53:51;11.23;;;7.57;;
6217;SDS011;3142;48.206;11.550;2024-01-30T03:56:17;12.20;;;7.87;;
6217;SDS011;3142;48.206;11.550;2024-01-30T03:58:43;13.23;;;6.57;;
6217;SDS011;3142;48.206;11.550;2024-01-30T04:01:12;13.20;;;6.93;;
6217;SDS011;3142;48.206;11.550;2024-01-30T04:03:39;10.33;;;5.90;;
6217;SDS011;3142;48.206;11.550;2024-01-30T04:06:07;8.53;;;5.50;;
6217;SDS011;3142;48.206;11.550;2024-01-30T04:08:34;8.60;;;6.10;;
6217;SDS011;3142;48.206;11.550;2024-01-30T04:11:02;9.17;;;5.77;;
6217;SDS011;3142;48.206;11.550;2024-01-30T04:13:30;9.90;;;6.67;;
6217;SDS011;3142;48.206;11.550;2024-01-30T04:15:58;8.13;;;4.80;;
6217;SDS011;3142;48.206;11.550;2024-01-30T04:18:25;7.67;;;5.37;;
6217;SDS011;3142;48.206;11.550;2024-01-30T04:20:51;6.70;;;4.77;;
6217;SDS011;3142;48.206;11.550;2024-01-30T04:23:19;8.47;;;5.73;;
6217;SDS011;3142;48.206;11.550;2024-01-30T04:25:46;8.93;;;6.40;;
6217;SDS011;3142;48.206;11.550;2024-01-30T04:28:12;9.63;;;5.90;;
6217;SDS011;3142;48.206;11.550;2024-01-30T04:30:39;9.10;;;4.20;;
6217;SDS011;3142;48.206;11.550;2024-01-30T04:33:05;6.00;;;4.50;;
6217;SDS011;3142;48.206;11.550;2024-01-30T04:35:32;8.53;;;4.53;;
6217;SDS011;3142;48.206;11.550;2024-01-30T04:37:58;7.20;;;3.90;;
6217;SDS011;3142;48.206;11.550;2024-01-30T04:40:26;7.67;;;4.33;;
6217;SDS011;3142;48.206;11.550;2024-01-30T04:42:53;5.20;;;3.60;;
6217;SDS011;3142;48.206;11.550;2024-01-30T04:45:19;9.33;;;4.70;;
6217;SDS011;3142;48.206;11.550;2024-01-30T04:47:45;7.90;;;4.30;;
6217;SDS011;3142;48.206;11.550;2024-01-30T04:50:12;6.87;;;4.57;;
6217;SDS011;3142;48.206;11.550;2024-01-30T04:52:39;9.83;;;4.80;;
6217;SDS011;3142;48.206;11.550;2024-01-30T04:55:06;6.93;;;5.20;;
6217;SDS011;3142;48.206;11.550;2024-01-30T04:57:34;7.03;;;4.27;;
6217;SDS011;3142;48.206;11.550;2024-01-30T05:00:01;7.87;;;5.03;;
6217;SDS011;3142;48.206;11.550;2024-01-30T05:02:30;7.47;;;4.53;;
6217;SDS011;3142;48.206;11.550;2024-01-30T05:04:56;8.10;;;5.00;;
6217;SDS011;3142;48.206;11.550;2024-01-30T05:07:24;8.43;;;5.03;;
6217;SDS011;3142;48.206;11.550;2024-01-30T05:09:50;7.53;;;4.10;;
6217;SDS011;3142;48.206;11.550;2024-01-30T05:12:17;5.90;;;4.27;;
6217;SDS011;3142;48.206;11.550;2024-01-30T05:14:44;7.93;;;4.60;;
6217;SDS011;3142;48.206;11.550;2024-01-30T05:17:11;9.57;;;5.13;;
6217;SDS011;3142;48.206;11.550;2024-01-30T05:19:38;9.03;;;5.83;;
6217;SDS011;3142;48.206;11.550;2024-01-30T05:22:04;23.43;;;12.87;;
6217;SDS011;3142;48.206;11.550;2024-01-30T05:24:31;17.30;;;10.17;;
6217;SDS011;3142;48.206;11.550;2024-01-30T05:26:57;11.27;;;6.50;;
6217;SDS011;3142;48.206;11.550;2024-01-30T05:29:23;6.43;;;4.33;;
6217;SDS011;3142;48.206;11.550;2024-01-30T05:31:51;5.53;;;3.33;;
6217;SDS011;3142;48.206;11.550;2024-01-30T05:34:17;11.30;;;4.90;;
6217;SDS011;3142;48.206;11.550;2024-01-30T05:36:44;7.20;;;4.67;;
6217;SDS011;3142;48.206;11.550;2024-01-30T05:39:10;7.57;;;4.80;;
6217;SDS011;3142;48.206;11.550;2024-01-30T05:41:38;6.87;;;4.63;;
6217;SDS011;3142;48.206;11.550;2024-01-30T05:44:04;7.43;;;5.20;;
6217;SDS011;3142;48.206;11.550;2024-01-30T05:46:31;6.80;;;4.43;;
6217;SDS011;3142;48.206;11.550;2024-01-30T05:48:58;7.37;;;4.40;;
6217;SDS011;3142;48.206;11.550;2024-01-30T05:51:25;6.93;;;4.40;;
6217;SDS011;3142;48.206;11.550;2024-01-30T05:53:51;7.47;;;4.20;;
6217;SDS011;3142;48.206;11.550;2024-01-30T05:56:18;4.83;;;3.70;;
6217;SDS011;3142;48.206;11.550;2024-01-30T05:58:44;4.37;;;3.33;;
6217;SDS011;3142;48.206;11.550;2024-01-30T06:01:11;6.90;;;3.70;;
6217;SDS011;3142;48.206;11.550;2024-01-30T06:03:37;6.40;;;4.47;;
6217;SDS011;3142;48.206;11.550;2024-01-30T06:06:05;6.60;;;3.60;;
6217;SDS011;3142;48.206;11.550;2024-01-30T06:08:32;6.30;;;4.07;;
6217;SDS011;3142;48.206;11.550;2024-01-30T06:10:59;5.47;;;3.43;;
6217;SDS011;3142;48.206;11.550;2024-01-30T06:13:25;4.80;;;3.20;;
6217;SDS011;3142;48.206;11.550;2024-01-30T06:15:52;5.10;;;3.20;;
6217;SDS011;3142;48.206;11.550;2024-01-30T06:18:19;4.77;;;2.67;;
6217;SDS011;3142;48.206;11.550;2024-01-30T06:20:45;5.03;;;2.87;;
6217;SDS011;3142;48.206;11.550;2024-01-30T06:23:13;4.73;;;3.30;;
6217;SDS011;3142;48.206;11.550;2024-01-30T06:25:40;7.10;;;3.40;;
6217;SDS011;3142;48.206;11.550;2024-01-30T06:28:06;6.83;;;4.70;;
6217;SDS011;3142;48.206;11.550;2024-01-30T06:30:33;5.67;;;3.43;;
6217;SDS011;3142;48.206;11.550;2024-01-30T06:32:59;6.53;;;2.90;;
6217;SDS011;3142;48.206;11.550;2024-01-30T06:35:26;9.83;;;2.93;;
6217;SDS011;3142;48.206;11.550;2024-01-30T06:37:53;4.20;;;2.80;;
6217;SDS011;3142;48.206;11.550;2024-01-30T06:40:21;9.60;;;4.37;;
6217;SDS011;3142;48.206;11.550;2024-01-30T06:42:48;6.40;;;3.80;;
6217;SDS011;3142;48.206;11.550;2024-01-30T06:45:14;10.23;;;5.17;;
6217;SDS011;3142;48.206;11.550;2024-01-30T06:47:41;10.47;;;6.00;;
6217;SDS011;3142;48.206;11.550;2024-01-30T06:50:07;9.70;;;5.77;;
6217;SDS011;3142;48.206;11.550;2024-01-30T06:52:34;10.03;;;6.47;;
6217;SDS011;3142;48.206;11.550;2024-01-30T06:55:00;8.97;;;5.93;;
6217;SDS011;3142;48.206;11.550;2024-01-30T06:57:29;12.90;;;6.70;;
6217;SDS011;3142;48.206;11.550;2024-01-30T06:59:55;12.00;;;5.87;;
6217;SDS011;3142;48.206;11.550;2024-01-30T07:02:22;10.57;;;6.97;;
6217;SDS011;3142;48.206;11.550;2024-01-30T07:04:48;10.40;;;5.97;;
6217;SDS011;3142;48.206;11.550;2024-01-30T07:07:15;7.03;;;5.37;;
6217;SDS011;3142;48.206;11.550;2024-01-30T07:09:41;9.10;;;5.50;;
6217;SDS011;3142;48.206;11.550;2024-01-30T07:12:08;10.93;;;5.80;;
6217;SDS011;3142;48.206;11.550;2024-01-30T07:14:36;9.20;;;5.73;;
6217;SDS011;3142;48.206;11.550;2024-01-30T07:17:03;12.00;;;6.60;;
6217;SDS011;3142;48.206;11.550;2024-01-30T07:19:29;10.27;;;5.87;;
6217;SDS011;3142;48.206;11.550;2024-01-30T07:21:56;11.97;;;5.60;;
6217;SDS011;3142;48.206;11.550;2024-01-30T07:24:22;11.23;;;6.43;;
6217;SDS011;3142;48.206;11.550;2024-01-30T07:26:48;17.03;;;8.07;;
6217;SDS011;3142;48.206;11.550;2024-01-30T07:29:15;11.73;;;6.30;;
6217;SDS011;3142;48.206;11.550;2024-01-30T07:31:43;10.63;;;5.80;;
6217;SDS011;3142;48.206;11.550;2024-01-30T07:34:09;11.33;;;6.33;;
6217;SDS011;3142;48.206;11.550;2024-01-30T07:36:36;13.53;;;6.27;;
6217;SDS011;3142;48.206;11.550;2024-01-30T07:39:03;9.63;;;6.80;;
6217;SDS011;3142;48.206;11.550;2024-01-30T07:41:29;11.67;;;7.00;;
6217;SDS011;3142;48.206;11.550;2024-01-30T07:43:56;10.83;;;6.63;;
6217;SDS011;3142;48.206;11.550;2024-01-30T07:46:23;15.37;;;7.70;;
6217;SDS011;3142;48.206;11.550;2024-01-30T07:48:51;13.97;;;7.70;;
6217;SDS011;3142;48.206;11.550;2024-01-30T07:51:17;16.37;;;7.40;;
6217;SDS011;3142;48.206;11.550;2024-01-30T07:53:43;10.63;;;6.80;;
6217;SDS011;3142;48.206;11.550;2024-01-30T07:56:10;18.67;;;7.10;;
6217;SDS011;3142;48.206;11.550;2024-01-30T07:58:36;16.50;;;7.93;;
6217;SDS011;3142;48.206;11.550;2024-01-30T08:01:03;13.27;;;7.70;;
6217;SDS011;3142;48.206;11.550;2024-01-30T08:03:30;16.80;;;7.90;;
6217;SDS011;3142;48.206;11.550;2024-01-30T08:05:57;18.27;;;8.33;;
6217;SDS011;3142;48.206;11.550;2024-01-30T08:08:24;13.77;;;8.67;;
6217;SDS011;3142;48.206;11.550;2024-01-30T08:10:51;16.13;;;6.93;;
6217;SDS011;3142;48.206;11.550;2024-01-30T08:13:17;17.90;;;6.93;;
6217;SDS011;3142;48.206;11.550;2024-01-30T08:15:44;14.37;;;7.83;;
6217;SDS011;3142;48.206;11.550;2024-01-30T08:18:10;19.43;;;7.33;;
6217;SDS011;3142;48.206;11.550;2024-01-30T08:20:37;18.07;;;7.70;;
6217;SDS011;3142;48.206;11.550;2024-01-30T08:23:05;12.07;;;6.90;;
6217;SDS011;3142;48.206;11.550;2024-01-30T08:25:31;17.93;;;7.87;;
6217;SDS011;3142;48.206;11.550;2024-01-30T08:27:57;11.80;;;6.97;;
6217;SDS011;3142;48.206;11.550;2024-01-30T08:30:25;16.17;;;8.60;;
6217;SDS011;3142;48.206;11.550;2024-01-30T08:32:51;13.77;;;8.43;;
6217;SDS011;3142;48.206;11.550;2024-01-30T08:35:17;17.47;;;8.60;;
6217;SDS011;3142;48.206;11.550;2024-01-30T08:37:44;12.63;;;7.80;;
6217;SDS011;3142;48.206;11.550;2024-01-30T08:40:12;19.20;;;8.33;;
6217;SDS011;3142;48.206;11.550;2024-01-30T08:42:38;20.60;;;9.03;;
6217;SDS011;3142;48.206;11.550;2024-01-30T08:45:05;25.43;;;9.00;;
6217;SDS011;3142;48.206;11.550;2024-01-30T08:47:32;24.17;;;8.90;;
6217;SDS011;3142;48.206;11.550;2024-01-30T08:49:59;16.53;;;7.93;;
6217;SDS011;3142;48.206;11.550;2024-01-30T08:52:25;15.37;;;7.07;;
6217;SDS011;3142;48.206;11.550;2024-01-30T08:54:51;15.07;;;7.60;;
6217;SDS011;3142;48.206;11.550;2024-01-30T08:57:19;18.30;;;7.03;;
6217;SDS011;3142;48.206;11.550;2024-01-30T08:59:46;11.43;;;6.77;;
6217;SDS011;3142;48.206;11.550;2024-01-30T09:02:13;12.33;;;6.37;;
6217;SDS011;3142;48.206;11.550;2024-01-30T09:04:41;10.90;;;7.30;;
6217;SDS011;3142;48.206;11.550;2024-01-30T09:07:08;18.07;;;9.70;;
6217;SDS011;3142;48.206;11.550;2024-01-30T09:09:35;11.70;;;8.37;;
6217;SDS011;3142;48.206;11.550;2024-01-30T09:12:02;15.57;;;8.07;;
6217;SDS011;3142;48.206;11.550;2024-01-30T09:14:33;13.27;;;7.83;;
6217;SDS011;3142;48.206;11.550;2024-01-30T09:16:59;13.77;;;7.77;;
6217;SDS011;3142;48.206;11.550;2024-01-30T09:19:28;15.67;;;7.73;;
6217;SDS011;3142;48.206;11.550;2024-01-30T09:21:54;16.90;;;8.30;;
6217;SDS011;3142;48.206;11.550;2024-01-30T09:24:20;13.30;;;7.37;;
6217;SDS011;3142;48.206;11.550;2024-01-30T09:26:47;10.30;;;6.97;;
6217;SDS011;3142;48.206;11.550;2024-01-30T09:29:14;14.00;;;7.40;;
6217;SDS011;3142;48.206;11.550;2024-01-30T09:31:43;9.27;;;6.93;;
6217;SDS011;3142;48.206;11.550;2024-01-30T09:34:11;15.23;;;7.30;;
6217;SDS011;3142;48.206;11.550;2024-01-30T09:36:37;48.73;;;28.37;;
6217;SDS011;3142;48.206;11.550;2024-01-30T09:39:04;57.80;;;37.63;;
6217;SDS011;3142;48.206;11.550;2024-01-30T09:41:31;36.73;;;24.23;;
6217;SDS011;3142;48.206;11.550;2024-01-30T09:43:59;14.83;;;10.30;;
6217;SDS011;3142;48.206;11.550;2024-01-30T09:46:27;14.13;;;6.00;;
6217;SDS011;3142;48.206;11.550;2024-01-30T09:48:56;9.73;;;5.97;;
6217;SDS011;3142;48.206;11.550;2024-01-30T09:51:24;14.10;;;5.90;;
6217;SDS011;3142;48.206;11.550;2024-01-30T09:53:52;9.47;;;5.67;;
6217;SDS011;3142;48.206;11.550;2024-01-30T09:56:20;7.23;;;5.03;;
6217;SDS011;3142;48.206;11.550;2024-01-30T09:58:47;10.27;;;4.90;;
6217;SDS011;3142;48.206;11.550;2024-01-30T10:01:13;9.43;;;5.07;;
6217;SDS011;3142;48.206;11.550;2024-01-30T10:03:43;9.77;;;5.63;;
6217;SDS011;3142;48.206;11.550;2024-01-30T10:06:11;8.33;;;4.60;;
6217;SDS011;3142;48.206;11.550;2024-01-30T10:08:38;8.27;;;5.13;;
6217;SDS011;3142;48.206;11.550;2024-01-30T10:11:04;10.47;;;5.00;;
6217;SDS011;3142;48.206;11.550;2024-01-30T10:13:31;10.93;;;4.80;;
6217;SDS011;3142;48.206;11.550;2024-01-30T10:15:58;9.47;;;5.03;;
6217;SDS011;3142;48.206;11.550;2024-01-30T10:18:27;7.40;;;4.50;;
6217;SDS011;3142;48.206;11.550;2024-01-30T10:20:54;11.13;;;4.93;;
6217;SDS011;3142;48.206;11.550;2024-01-30T10:23:22;12.40;;;4.63;;
6217;SDS011;3142;48.206;11.550;2024-01-30T10:25:48;9.70;;;4.17;;
6217;SDS011;3142;48.206;11.550;2024-01-30T10:28:16;8.80;;;4.80;;
6217;SDS011;3142;48.206;11.550;2024-01-30T10:30:43;10.53;;;4.80;;
6217;SDS011;3142;48.206;11.550;2024-01-30T10:33:09;6.27;;;4.90;;
6217;SDS011;3142;48.206;11.550;2024-01-30T10:35:36;7.80;;;4.30;;
6217;SDS011;3142;48.206;11.550;2024-01-30T10:38:02;5.83;;;4.27;;
6217;SDS011;3142;48.206;11.550;2024-01-30T10:40:33;9.33;;;4.30;;
6217;SDS011;3142;48.206;11.550;2024-01-30T10:43:01;6.63;;;4.40;;
6217;SDS011;3142;48.206;11.550;2024-01-30T10:45:27;9.00;;;4.70;;
6217;SDS011;3142;48.206;11.550;2024-01-30T10:47:56;7.77;;;4.07;;
6217;SDS011;3142;48.206;11.550;2024-01-30T10:50:25;6.83;;;3.63;;
6217;SDS011;3142;48.206;11.550;2024-01-30T10:52:53;7.70;;;4.40;;
6217;SDS011;3142;48.206;11.550;2024-01-30T10:55:21;6.50;;;3.77;;
6217;SDS011;3142;48.206;11.550;2024-01-30T10:57:50;7.73;;;3.30;;
6217;SDS011;3142;48.206;11.550;2024-01-30T11:00:16;7.37;;;3.10;;
6217;SDS011;3142;48.206;11.550;2024-01-30T11:02:48;3.93;;;2.30;;
6217;SDS011;3142;48.206;11.550;2024-01-30T11:05:15;6.57;;;2.73;;
6217;SDS011;3142;48.206;11.550;2024-01-30T11:07:49;2.73;;;2.10;;
6217;SDS011;3142;48.206;11.550;2024-01-30T11:10:16;4.73;;;2.70;;
6217;SDS011;3142;48.206;11.550;2024-01-30T11:12:43;3.33;;;2.60;;
6217;SDS011;3142;48.206;11.550;2024-01-30T11:15:14;3.80;;;3.00;;
6217;SDS011;3142;48.206;11.550;2024-01-30T11:17:42;6.07;;;3.33;;
6217;SDS011;3142;48.206;11.550;2024-01-30T11:20:09;7.90;;;3.17;;
6217;SDS011;3142;48.206;11.550;2024-01-30T11:22:36;3.97;;;2.70;;
6217;SDS011;3142;48.206;11.550;2024-01-30T11:25:03;7.00;;;2.80;;
6217;SDS011;3142;48.206;11.550;2024-01-30T11:27:30;6.90;;;2.70;;
6217;SDS011;3142;48.206;11.550;2024-01-30T11:30:00;8.13;;;2.87;;
6217;SDS011;3142;48.206;11.550;2024-01-30T11:32:29;5.40;;;2.80;;
6217;SDS011;3142;48.206;11.550;2024-01-30T11:34:55;4.27;;;2.47;;
6217;SDS011;3142;48.206;11.550;2024-01-30T11:37:22;6.37;;;2.37;;
6217;SDS011;3142;48.206;11.550;2024-01-30T11:39:52;5.60;;;3.07;;
6217;SDS011;3142;48.206;11.550;2024-01-30T11:42:19;7.47;;;2.90;;
6217;SDS011;3142;48.206;11.550;2024-01-30T11:44:47;5.87;;;3.30;;
6217;SDS011;3142;48.206;11.550;2024-01-30T11:47:14;6.27;;;3.13;;
6217;SDS011;3142;48.206;11.550;2024-01-30T11:49:43;5.63;;;2.40;;
6217;SDS011;3142;48.206;11.550;2024-01-30T11:52:10;5.30;;;2.93;;
6217;SDS011;3142;48.206;11.550;2024-01-30T11:54:38;6.00;;;3.03;;
6217;SDS011;3142;48.206;11.550;2024-01-30T11:57:05;5.23;;;2.63;;
6217;SDS011;3142;48.206;11.550;2024-01-30T11:59:32;9.53;;;4.67;;
6217;SDS011;3142;48.206;11.550;2024-01-30T12:01:58;14.77;;;7.47;;
6217;SDS011;3142;48.206;11.550;2024-01-30T12:04:27;12.47;;;7.00;;
6217;SDS011;3142;48.206;11.550;2024-01-30T12:06:55;11.97;;;6.17;;
6217;SDS011;3142;48.206;11.550;2024-01-30T12:09:22;22.53;;;12.27;;
6217;SDS011;3142;48.206;11.550;2024-01-30T12:11:48;19.10;;;9.23;;
6217;SDS011;3142;48.206;11.550;2024-01-30T12:14:16;8.80;;;4.50;;
6217;SDS011;3142;48.206;11.550;2024-01-30T12:16:47;6.13;;;2.60;;
6217;SDS011;3142;48.206;11.550;2024-01-30T12:19:20;4.27;;;2.23;;
6217;SDS011;3142;48.206;11.550;2024-01-30T12:21:48;9.20;;;2.30;;
6217;SDS011;3142;48.206;11.550;2024-01-30T12:24:21;5.10;;;2.20;;
6217;SDS011;3142;48.206;11.550;2024-01-30T12:26:47;3.30;;;2.20;;
6217;SDS011;3142;48.206;11.550;2024-01-30T12:29:14;22.47;;;15.03;;
6217;SDS011;3142;48.206;11.550;2024-01-30T12:31:41;10.87;;;5.97;;
6217;SDS011;3142;48.206;11.550;2024-01-30T12:34:08;13.93;;;7.93;;
6217;SDS011;3142;48.206;11.550;2024-01-30T12:36:35;12.43;;;8.33;;
6217;SDS011;3142;48.206;11.550;2024-01-30T12:39:02;6.97;;;4.50;;
6217;SDS011;3142;48.206;11.550;2024-01-30T12:41:30;4.73;;;2.87;;
6217;SDS011;3142;48.206;11.550;2024-01-30T12:43:57;5.10;;;2.47;;
6217;SDS011;3142;48.206;11.550;2024-01-30T12:46:25;5.83;;;2.40;;
6217;SDS011;3142;48.206;11.550;2024-01-30T12:48:53;7.30;;;2.13;;
6217;SDS011;3142;48.206;11.550;2024-01-30T12:51:20;6.43;;;2.70;;
6217;SDS011;3142;48.206;11.550;2024-01-30T12:53:46;5.47;;;2.50;;
6217;SDS011;3142;48.206;11.550;2024-01-30T12:56:13;6.03;;;2.73;;
6217;SDS011;3142;48.206;11.550;2024-01-30T12:58:41;5.23;;;2.93;;
6217;SDS011;3142;48.206;11.550;2024-01-30T13:01:08;6.20;;;2.90;;
6217;SDS011;3142;48.206;11.550;2024-01-30T13:03:35;9.60;;;3.03;;
6217;SDS011;3142;48.206;11.550;2024-01-30T13:06:02;6.63;;;2.70;;
6217;SDS011;3142;48.206;11.550;2024-01-30T13:08:28;11.90;;;3.17;;
6217;SDS011;3142;48.206;11.550;2024-01-30T13:10:55;11.90;;;3.13;;
6217;SDS011;3142;48.206;11.550;2024-01-30T13:13:21;7.00;;;2.93;;
6217;SDS011;3142;48.206;11.550;2024-01-30T13:15:50;13.67;;;3.50;;
6217;SDS011;3142;48.206;11.550;2024-01-30T13:18:16;7.47;;;3.57;;
6217;SDS011;3142;48.206;11.550;2024-01-30T13:20:43;12.77;;;4.03;;
6217;SDS011;3142;48.206;11.550;2024-01-30T13:23:09;7.20;;;3.67;;
6217;SDS011;3142;48.206;11.550;2024-01-30T13:25:35;8.63;;;3.43;;
6217;SDS011;3142;48.206;11.550;2024-01-30T13:28:02;10.77;;;3.07;;
6217;SDS011;3142;48.206;11.550;2024-01-30T13:30:29;9.60;;;3.17;;
6217;SDS011;3142;48.206;11.550;2024-01-30T13:32:56;9.00;;;3.43;;
6217;SDS011;3142;48.206;11.550;2024-01-30T13:35:23;5.93;;;3.33;;
6217;SDS011;3142;48.206;11.550;2024-01-30T13:37:49;10.00;;;3.10;;
6217;SDS011;3142;48.206;11.550;2024-01-30T13:40:16;6.57;;;2.77;;
6217;SDS011;3142;48.206;11.550;2024-01-30T13:42:42;6.20;;;3.20;;
6217;SDS011;3142;48.206;11.550;2024-01-30T13:45:09;84.23;;;56.57;;
6217;SDS011;3142;48.206;11.550;2024-01-30T13:47:35;27.93;;;14.67;;
6217;SDS011;3142;48.206;11.550;2024-01-30T13:50:04;18.63;;;12.03;;
6217;SDS011;3142;48.206;11.550;2024-01-30T13:52:30;26.37;;;17.30;;
6217;SDS011;3142;48.206;11.550;2024-01-30T13:54:57;13.43;;;4.80;;
6217;SDS011;3142;48.206;11.550;2024-01-30T13:57:23;9.37;;;4.00;;
6217;SDS011;3142;48.206;11.550;2024-01-30T13:59:50;7.90;;;3.73;;
6217;SDS011;3142;48.206;11.550;2024-01-30T14:02:16;14.33;;;4.07;;
6217;SDS011;3142;48.206;11.550;2024-01-30T14:04:43;13.67;;;3.80;;
6217;SDS011;3142;48.206;11.550;2024-01-30T14:07:11;10.73;;;3.60;;
6217;SDS011;3142;48.206;11.550;2024-01-30T14:09:37;7.30;;;3.33;;
6217;SDS011;3142;48.206;11.550;2024-01-30T14:12:04;7.13;;;3.47;;
6217;SDS011;3142;48.206;11.550;2024-01-30T14:14:31;9.67;;;3.10;;
6217;SDS011;3142;48.206;11.550;2024-01-30T14:16:57;4.20;;;3.23;;
6217;SDS011;3142;48.206;11.550;2024-01-30T14:19:24;10.10;;;3.50;;
6217;SDS011;3142;48.206;11.550;2024-01-30T14:21:51;7.57;;;3.73;;
6217;SDS011;3142;48.206;11.550;2024-01-30T14:24:18;9.53;;;3.93;;
6217;SDS011;3142;48.206;11.550;2024-01-30T14:26:45;8.40;;;3.53;;
6217;SDS011;3142;48.206;11.550;2024-01-30T14:29:11;8.23;;;4.23;;
6217;SDS011;3142;48.206;11.550;2024-01-30T14:31:38;7.63;;;4.33;;
6217;SDS011;3142;48.206;11.550;2024-01-30T14:34:04;5.07;;;3.30;;
6217;SDS011;3142;48.206;11.550;2024-01-30T14:36:31;6.20;;;4.27;;
6217;SDS011;3142;48.206;11.550;2024-01-30T14:38:57;4.53;;;3.50;;
6217;SDS011;3142;48.206;11.550;2024-01-30T14:41:25;6.17;;;3.30;;
6217;SDS011;3142;48.206;11.550;2024-01-30T14:43:51;10.30;;;4.17;;
6217;SDS011;3142;48.206;11.550;2024-01-30T14:46:18;9.93;;;4.27;;
6217;SDS011;3142;48.206;11.550;2024-01-30T14:48:44;16.23;;;6.37;;
6217;SDS011;3142;48.206;11.550;2024-01-30T14:51:11;8.83;;;4.67;;